Time;durP1;ratioP1;P1;durP2;ratioP2;P2;SDS_P1;SDS_P2;PMS_P1;PMS_P2;Temp;Humidity;BMP_temperature;BMP_pressure;BME280_temperature;BME280_humidity;BME280_pressure;Samples;Min_cycle;Max_cycle;Signal;HPM_P1;HPM_P2
2021/01/08 00:02:13;;;;;;;19.27;11.20;;;;;;;11.56;59.12;99246.03;5015914;28;20112;-79
2021/01/08 00:04:39;;;;;;;17.10;11.10;;;;;;;11.62;59.05;99257.69;5015798;28;20038;-81
2021/01/08 00:07:04;;;;;;;16.15;11.13;;;;;;;11.29;58.99;99201.91;5015718;28;20034;-78
2021/01/08 00:09:29;;;;;;;19.40;11.68;;;;;;;11.16;58.75;99189.41;5014823;28;20040;-78
2021/01/08 00:11:55;;;;;;;18.30;11.65;;;;;;;11.57;59.33;99255.59;5015942;28;20104;-80
2021/01/08 00:14:21;;;;;;;15.18;11.25;;;;;;;11.55;59.20;99267.38;5015695;28;20029;-80
2021/01/08 00:16:46;;;;;;;15.18;10.73;;;;;;;10.95;59.28;99173.53;5015719;28;20029;-79
2021/01/08 00:19:13;;;;;;;14.50;10.27;;;;;;;11.48;59.50;99266.50;5014610;28;20029;-78
2021/01/08 00:21:42;;;;;;;13.95;9.82;;;;;;;10.76;59.47;99154.66;5015397;28;20080;-79
2021/01/08 00:24:09;;;;;;;14.77;10.30;;;;;;;11.48;59.66;99269.97;5015500;28;20029;-80
2021/01/08 00:26:35;;;;;;;16.95;10.70;;;;;;;11.49;59.51;99281.38;5015311;28;20034;-80
2021/01/08 00:29:00;;;;;;;15.68;10.82;;;;;;;11.44;59.87;99271.34;5015353;28;20022;-79
2021/01/08 00:31:41;;;;;;;22.77;12.73;;;;;;;10.61;59.82;99148.63;5015357;28;20430;-80
2021/01/08 00:34:11;;;;;;;21.48;14.70;;;;;;;11.36;59.58;99253.00;5014397;28;20360;-80
2021/01/08 00:36:36;;;;;;;22.45;15.05;;;;;;;11.01;59.69;99218.50;5014192;28;20022;-80
2021/01/08 00:39:04;;;;;;;22.67;16.20;;;;;;;11.07;59.99;99227.50;5015322;28;20029;-77
2021/01/08 00:41:33;;;;;;;20.10;15.23;;;;;;;11.18;59.95;99248.16;5015094;28;20409;-81
2021/01/08 00:44:00;;;;;;;20.83;14.68;;;;;;;10.80;59.96;99182.31;5014119;28;20058;-80
2021/01/08 00:46:45;;;;;;;20.65;14.50;;;;;;;11.27;60.63;99251.47;5015145;28;20045;-81
2021/01/08 00:49:11;;;;;;;21.05;13.52;;;;;;;11.20;60.23;99251.41;5014970;28;20421;-80
2021/01/08 00:51:37;;;;;;;18.67;13.95;;;;;;;10.86;60.65;99187.88;5014532;28;20029;-79
2021/01/08 00:54:04;;;;;;;21.10;14.52;;;;;;;11.21;60.42;99241.66;5013789;28;20041;-79
2021/01/08 00:56:30;;;;;;;21.90;14.75;;;;;;;11.09;60.66;99228.94;5014971;28;20029;-79
2021/01/08 00:58:56;;;;;;;20.33;14.45;;;;;;;10.93;60.49;99213.34;5014040;28;20044;-81
2021/01/08 01:01:22;;;;;;;21.02;14.77;;;;;;;10.98;60.45;99215.41;5014977;28;20429;-81
2021/01/08 01:03:48;;;;;;;19.15;13.45;;;;;;;11.19;60.92;99241.03;5014945;28;20160;-80
2021/01/08 01:06:24;;;;;;;21.25;14.35;;;;;;;11.08;60.33;99197.41;5015009;28;20409;-79
2021/01/08 01:08:50;;;;;;;19.25;13.13;;;;;;;11.16;60.91;99212.34;5014867;28;20034;-79
2021/01/08 01:11:17;;;;;;;21.73;15.00;;;;;;;10.87;60.76;99155.97;5014955;28;20038;-79
2021/01/08 01:13:43;;;;;;;23.30;15.82;;;;;;;11.12;60.70;99202.13;5014946;28;20388;-81
2021/01/08 01:16:10;;;;;;;20.95;15.07;;;;;;;10.43;60.76;99106.81;5013791;28;20088;-79
2021/01/08 01:18:35;;;;;;;24.55;16.83;;;;;;;10.56;61.01;99137.81;5014611;28;20056;-82
2021/01/08 01:21:00;;;;;;;24.35;16.70;;;;;;;11.06;60.88;99202.91;5014987;28;20494;-79
2021/01/08 01:23:26;;;;;;;23.17;15.25;;;;;;;10.70;60.82;99144.84;5014681;28;20030;-80
2021/01/08 01:25:51;;;;;;;21.67;14.88;;;;;;;10.78;61.00;99155.28;5014912;28;20045;-80
2021/01/08 01:28:17;;;;;;;20.83;15.13;;;;;;;10.63;61.23;99109.66;5014616;28;20096;-79
2021/01/08 01:30:42;;;;;;;20.98;14.75;;;;;;;11.13;61.17;99174.72;5014816;28;20109;-78
2021/01/08 01:33:07;;;;;;;22.40;14.13;;;;;;;10.81;60.85;99125.06;5013692;28;20037;-79
2021/01/08 01:35:33;;;;;;;20.27;15.63;;;;;;;11.09;61.13;99162.88;5014488;28;20065;-76
2021/01/08 01:37:58;;;;;;;24.17;14.68;;;;;;;11.10;61.13;99161.06;5014661;28;20025;-78
2021/01/08 01:40:24;;;;;;;20.83;14.88;;;;;;;10.91;60.67;99122.91;5014514;28;20032;-79
2021/01/08 01:42:49;;;;;;;23.10;16.38;;;;;;;11.11;61.56;99144.19;5013439;28;20365;-79
2021/01/08 01:45:15;;;;;;;22.75;15.23;;;;;;;11.10;61.09;99168.97;5013608;28;20030;-79
2021/01/08 01:47:41;;;;;;;20.63;15.02;;;;;;;11.12;61.27;99159.03;5014455;28;20030;-79
2021/01/08 01:50:08;;;;;;;25.52;15.25;;;;;;;11.13;61.55;99163.31;5014474;28;20448;-79
2021/01/08 01:52:35;;;;;;;21.38;14.88;;;;;;;10.66;61.68;99092.63;5013498;28;20088;-79
2021/01/08 01:55:02;;;;;;;22.85;14.98;;;;;;;11.00;61.04;99147.34;5014697;28;20487;-81
2021/01/08 01:57:27;;;;;;;25.63;16.33;;;;;;;10.86;61.02;99119.19;5014426;28;20037;-79
2021/01/08 01:59:52;;;;;;;24.70;15.82;;;;;;;10.55;61.55;99053.53;5014620;28;20034;-78
2021/01/08 02:02:23;;;;;;;23.73;16.15;;;;;;;11.17;61.34;99183.09;5014408;28;20030;-80
2021/01/08 02:04:52;;;;;;;25.60;16.58;;;;;;;11.17;61.63;99153.22;5017360;28;20036;-77
2021/01/08 02:07:18;;;;;;;26.98;18.33;;;;;;;11.16;61.42;99143.66;5017850;28;20029;-78
2021/01/08 02:09:44;;;;;;;25.38;16.98;;;;;;;10.94;61.78;99117.25;5016972;28;20026;-77
2021/01/08 02:12:13;;;;;;;26.33;16.15;;;;;;;10.69;61.99;99066.66;5018011;28;20061;-79
2021/01/08 02:14:43;;;;;;;23.52;15.77;;;;;;;10.75;61.26;99070.34;5017821;28;20125;-78
2021/01/08 02:17:10;;;;;;;25.60;16.25;;;;;;;10.62;61.95;99042.03;5016804;28;20064;-78
2021/01/08 02:20:01;;;;;;;24.85;17.17;;;;;;;11.03;61.62;99110.00;5017623;28;20066;-77
2021/01/08 02:22:46;;;;;;;23.10;14.77;;;;;;;10.77;61.57;99085.00;5015456;28;20184;-77
2021/01/08 02:25:18;;;;;;;23.00;15.85;;;;;;;10.32;61.96;99001.75;5016872;28;20034;-79
2021/01/08 02:28:11;;;;;;;20.92;14.27;;;;;;;10.73;61.76;99065.28;5016616;28;20036;-79
2021/01/08 02:30:37;;;;;;;26.52;16.77;;;;;;;10.54;62.00;99041.34;5014030;28;20037;-81
2021/01/08 02:33:04;;;;;;;24.55;17.27;;;;;;;10.30;61.49;98990.56;5017656;28;20036;-78
2021/01/08 02:35:33;;;;;;;24.17;15.95;;;;;;;10.50;61.32;99014.50;5017489;28;20022;-78
2021/01/08 02:37:59;;;;;;;22.42;15.80;;;;;;;10.98;61.37;99085.97;5017606;28;20060;-78
2021/01/08 02:40:26;;;;;;;21.92;15.80;;;;;;;10.65;61.61;99036.38;5017433;28;20037;-79
2021/01/08 02:42:58;;;;;;;20.77;15.20;;;;;;;10.97;61.43;99087.00;5016172;28;20061;-78
2021/01/08 02:45:24;;;;;;;;;;;;;;;10.87;61.65;99089.97;5017730;28;20034;-77
2021/01/08 02:47:49;;;;;;;23.17;15.77;;;;;;;10.73;62.02;99077.66;5017461;28;19936;-79
2021/01/08 02:50:14;;;;;;;26.48;17.98;;;;;;;10.36;61.62;99005.63;5017334;28;20440;-78
2021/01/08 02:52:43;;;;;;;26.50;18.10;;;;;;;10.87;62.16;99083.84;5017168;28;20026;-78
2021/01/08 02:55:11;;;;;;;24.50;17.05;;;;;;;10.82;61.84;99079.97;5017129;28;20033;-77
2021/01/08 02:57:36;;;;;;;24.42;17.23;;;;;;;10.71;62.01;99075.19;5017155;28;20026;-77
2021/01/08 03:00:04;;;;;;;24.77;16.98;;;;;;;10.71;62.12;99080.47;5017113;28;20061;-78
2021/01/08 03:02:30;;;;;;;24.20;16.20;;;;;;;10.64;61.84;99066.41;5016949;28;20489;-79
2021/01/08 03:04:55;;;;;;;36.10;20.95;;;;;;;10.89;62.41;99105.63;5017110;28;20113;-78
2021/01/08 03:07:25;;;;;;;26.75;17.83;;;;;;;10.43;62.21;99047.94;5016814;28;20029;-79
2021/01/08 03:09:51;;;;;;;21.23;14.50;;;;;;;10.68;62.30;99091.44;5016814;28;20057;-78
2021/01/08 03:12:17;;;;;;;21.92;15.25;;;;;;;10.79;62.09;99111.22;5015885;28;20040;-78
2021/01/08 03:14:47;;;;;;;18.25;13.80;;;;;;;10.43;62.62;99063.78;5016309;28;20034;-78
2021/01/08 03:17:13;;;;;;;21.63;15.63;;;;;;;10.68;62.65;99095.88;5016685;28;20049;-80
2021/01/08 03:19:39;;;;;;;24.25;17.08;;;;;;;10.67;62.76;99097.72;5016596;28;20037;-77
2021/01/08 03:22:05;;;;;;;24.88;15.85;;;;;;;10.66;62.67;99089.97;5016665;28;20026;-78
2021/01/08 03:24:31;;;;;;;22.00;16.15;;;;;;;10.70;63.11;99094.69;5015372;28;20029;-78
2021/01/08 03:26:56;;;;;;;26.95;20.83;;;;;;;10.58;63.15;99072.44;5016533;28;20025;-77
2021/01/08 03:29:22;;;;;;;26.00;19.13;;;;;;;10.42;62.81;99056.88;5016383;28;20026;-76
2021/01/08 03:31:47;;;;;;;27.02;19.63;;;;;;;10.19;63.34;99020.06;5016503;28;20063;-79
2021/01/08 03:34:13;;;;;;;24.52;18.70;;;;;;;10.57;62.70;99085.84;5016511;28;20081;-77
2021/01/08 03:36:38;;;;;;;24.75;18.35;;;;;;;9.95;63.25;98983.50;5015327;28;20030;-79
2021/01/08 03:39:04;;;;;;;22.35;15.98;;;;;;;10.72;63.16;99105.06;5016538;28;20102;-78
2021/01/08 03:41:29;;;;;;;24.10;16.45;;;;;;;10.32;63.28;99036.03;5016118;28;20029;-79
2021/01/08 03:43:54;;;;;;;24.45;16.40;;;;;;;10.68;63.30;99101.16;5015360;28;20065;-77
2021/01/08 03:46:20;;;;;;;24.15;16.20;;;;;;;10.63;63.94;99106.19;5016223;28;20040;-79
2021/01/08 03:48:45;;;;;;;21.88;14.90;;;;;;;10.08;63.67;99012.63;5015137;28;20088;-78
2021/01/08 03:51:11;;;;;;;24.42;17.20;;;;;;;10.58;63.81;99108.59;5016187;28;20105;-79
2021/01/08 03:53:36;;;;;;;25.42;16.30;;;;;;;10.02;63.91;99027.41;5016103;28;20033;-80
2021/01/08 03:56:02;;;;;;;23.58;15.57;;;;;;;10.05;64.34;99034.13;5016043;28;20033;-79
2021/01/08 03:58:27;;;;;;;25.42;16.65;;;;;;;9.92;64.34;99018.97;5015908;28;20030;-78
2021/01/08 04:00:53;;;;;;;21.05;15.52;;;;;;;10.03;64.76;99044.03;5016238;28;20034;-79
2021/01/08 04:03:18;;;;;;;20.65;14.02;;;;;;;10.38;64.88;99093.34;5014841;28;20022;-79
2021/01/08 04:05:43;;;;;;;19.15;13.27;;;;;;;9.77;65.09;99000.56;5014799;28;20168;-78
2021/01/08 04:08:09;;;;;;;15.02;11.88;;;;;;;10.43;64.80;99101.53;5015948;28;20026;-79
2021/01/08 04:10:34;;;;;;;16.48;12.07;;;;;;;10.29;65.25;99081.28;5015830;28;20040;-78
2021/01/08 04:12:59;;;;;;;16.63;11.90;;;;;;;10.43;65.01;99090.16;5015804;28;20106;-79
2021/01/08 04:15:25;;;;;;;17.75;11.90;;;;;;;10.16;65.00;99052.91;5014616;28;20030;-77
2021/01/08 04:17:50;;;;;;;15.88;11.98;;;;;;;10.48;64.91;99088.59;5015654;28;20045;-77
2021/01/08 04:20:16;;;;;;;18.08;11.73;;;;;;;10.17;65.16;99036.06;5015682;28;20029;-78
2021/01/08 04:22:42;;;;;;;17.83;12.10;;;;;;;10.44;65.53;99089.16;5015560;28;20037;-80
2021/01/08 04:25:07;;;;;;;17.98;13.30;;;;;;;10.37;65.34;99083.78;5014638;28;20133;-80
2021/01/08 04:27:33;;;;;;;19.73;13.35;;;;;;;10.43;65.39;99082.25;5015320;28;20060;-80
2021/01/08 04:29:58;;;;;;;19.77;12.60;;;;;;;10.42;65.60;99085.91;5015453;28;20040;-80
2021/01/08 04:32:23;;;;;;;22.35;14.25;;;;;;;10.09;65.63;99030.91;5015386;28;20109;-78
2021/01/08 04:34:49;;;;;;;20.83;13.00;;;;;;;10.43;66.10;99087.53;5015578;28;20045;-78
2021/01/08 04:37:14;;;;;;;17.02;12.73;;;;;;;10.46;65.74;99087.16;5015367;28;20107;-78
2021/01/08 04:39:39;;;;;;;21.65;12.85;;;;;;;9.73;65.81;98972.94;5015325;28;20109;-78
2021/01/08 04:42:05;;;;;;;16.27;11.60;;;;;;;10.38;65.89;99085.44;5015124;28;20021;-79
2021/01/08 04:44:31;;;;;;;20.20;13.15;;;;;;;9.72;65.99;98965.22;5014295;28;20029;-78
2021/01/08 04:46:57;;;;;;;19.70;12.68;;;;;;;10.17;66.05;99038.72;5014250;28;20088;-79
2021/01/08 04:49:23;;;;;;;21.35;12.60;;;;;;;10.01;65.95;98990.66;5013992;28;20493;-78
2021/01/08 04:51:51;;;;;;;21.67;13.75;;;;;;;9.79;66.23;98958.19;5015308;28;20444;-80
2021/01/08 04:54:17;;;;;;;22.95;14.38;;;;;;;10.49;66.15;99065.66;5015104;28;20041;-77
2021/01/08 04:56:48;;;;;;;21.60;13.43;;;;;;;10.50;66.86;99065.47;5015022;28;20457;-78
2021/01/08 04:59:14;;;;;;;22.92;13.77;;;;;;;10.33;66.13;99048.22;5013916;28;20490;-77
2021/01/08 05:01:40;;;;;;;20.55;13.13;;;;;;;9.89;66.32;98971.88;5014855;28;20120;-78
2021/01/08 05:04:05;;;;;;;22.77;13.95;;;;;;;10.24;66.90;99020.34;5013936;28;20087;-77
2021/01/08 05:06:32;;;;;;;24.02;15.60;;;;;;;10.53;66.40;99055.53;5014955;28;20168;-79
2021/01/08 05:08:57;;;;;;;27.33;17.13;;;;;;;10.42;66.35;99041.84;5014884;28;20179;-78
2021/01/08 05:11:25;;;;;;;24.65;15.98;;;;;;;10.57;66.21;99052.34;5014827;28;20432;-78
2021/01/08 05:13:57;;;;;;;28.00;18.52;;;;;;;10.29;66.59;99003.94;5014766;28;20443;-78
2021/01/08 05:16:25;;;;;;;28.42;17.90;;;;;;;10.41;66.52;99036.75;5013710;28;20100;-79
2021/01/08 05:18:53;;;;;;;27.98;17.77;;;;;;;10.25;66.33;98995.59;5014848;28;20054;-78
2021/01/08 05:21:19;;;;;;;35.00;19.77;;;;;;;10.67;66.89;99049.38;5014784;28;20057;-78
2021/01/08 05:23:44;;;;;;;29.13;19.90;;;;;;;9.85;66.16;98931.06;5014766;28;20029;-78
2021/01/08 05:26:14;;;;;;;30.65;19.45;;;;;;;10.53;66.37;99013.31;5014735;28;20400;-79
2021/01/08 05:28:46;;;;;;;26.10;17.38;;;;;;;10.59;66.91;99037.13;5014642;28;20041;-78
2021/01/08 05:31:11;;;;;;;;;;;;;;;10.56;67.47;99031.41;5015313;28;20100;-78
2021/01/08 05:33:37;;;;;;;31.52;18.92;;;;;;;10.49;66.64;99024.25;5014488;28;20240;-79
2021/01/08 05:36:03;;;;;;;27.20;18.63;;;;;;;10.21;66.60;98967.94;5014701;28;20069;-77
2021/01/08 05:38:30;;;;;;;32.42;19.27;;;;;;;10.47;66.78;99015.72;5015424;28;20026;-78
2021/01/08 05:41:02;;;;;;;32.13;20.05;;;;;;;10.68;66.91;99029.88;5018550;28;20344;-78
2021/01/08 05:43:31;;;;;;;31.55;20.15;;;;;;;10.66;66.61;99027.44;5018093;28;20115;-80
2021/01/08 05:46:08;;;;;;;36.80;22.67;;;;;;;10.64;67.38;99018.88;5018384;28;20029;-79
2021/01/08 05:48:36;;;;;;;35.58;20.70;;;;;;;10.28;66.58;98963.53;5018220;28;20348;-79
2021/01/08 05:51:02;;;;;;;34.33;20.05;;;;;;;10.13;66.67;98946.94;5017378;28;20026;-77
2021/01/08 05:53:27;;;;;;;34.67;20.15;;;;;;;10.16;66.64;98928.91;5018231;28;20080;-81
2021/01/08 05:55:53;;;;;;;33.30;23.38;;;;;;;10.71;66.62;99027.69;5018545;28;20336;-79
2021/01/08 05:58:23;;;;;;;38.80;24.85;;;;;;;10.72;66.94;98997.63;5018235;28;20026;-77
2021/01/08 06:01:03;;;;;;;39.90;24.02;;;;;;;10.70;66.65;99015.47;5018331;28;20045;-78
2021/01/08 06:03:29;;;;;;;33.30;21.98;;;;;;;10.74;66.56;99008.81;5018089;28;20396;-77
2021/01/08 06:05:57;;;;;;;44.53;27.20;;;;;;;10.77;66.99;98997.03;5017078;28;20364;-81
2021/01/08 06:08:28;;;;;;;46.33;28.38;;;;;;;10.81;67.09;99004.38;5017953;28;20030;-79
2021/01/08 06:10:55;;;;;;;53.43;31.27;;;;;;;10.79;66.81;98997.66;5016960;28;20087;-81
2021/01/08 06:13:24;;;;;;;45.95;28.95;;;;;;;10.78;66.54;98988.94;5016916;28;20297;-81
2021/01/08 06:15:52;;;;;;;51.75;28.05;;;;;;;10.31;66.99;98920.94;5016914;28;20034;-80
2021/01/08 06:18:20;;;;;;;53.40;27.05;;;;;;;10.42;67.16;98933.66;5017892;28;20022;-78
2021/01/08 06:20:49;;;;;;;51.42;29.88;;;;;;;10.39;67.42;98954.28;5017732;28;20428;-78
2021/01/08 06:23:37;;;;;;;49.83;28.17;;;;;;;10.73;67.29;98999.25;5016662;28;20072;-79
2021/01/08 06:26:04;;;;;;;53.40;30.23;;;;;;;10.72;66.94;99000.25;5017886;28;20018;-78
2021/01/08 06:28:35;;;;;;;47.25;28.85;;;;;;;10.37;67.04;98940.47;5017604;28;20384;-79
2021/01/08 06:31:25;;;;;;;56.17;29.88;;;;;;;10.78;67.03;98993.41;5017673;28;20025;-81
2021/01/08 06:33:54;;;;;;;48.25;30.45;;;;;;;10.77;67.07;98994.41;5017179;28;20052;-77
2021/01/08 06:36:28;;;;;;;58.80;32.28;;;;;;;10.12;67.38;98888.09;5017360;28;20092;-78
2021/01/08 06:38:55;;;;;;;60.50;33.42;;;;;;;10.34;67.18;98917.13;5016983;28;20108;-78
2021/01/08 06:41:22;;;;;;;62.40;30.27;;;;;;;10.19;67.20;98894.25;5017306;28;20057;-78
2021/01/08 06:44:14;;;;;;;49.95;28.42;;;;;;;10.94;66.86;98992.28;5017355;28;20048;-78
2021/01/08 06:46:42;;;;;;;51.28;28.85;;;;;;;10.99;66.71;98981.94;5014826;28;20077;-81
2021/01/08 06:49:10;;;;;;;55.17;30.20;;;;;;;10.98;66.68;98986.41;5016650;28;20037;-81
2021/01/08 06:51:37;;;;;;;41.20;24.90;;;;;;;10.53;67.27;98916.47;5013569;28;20036;-80
2021/01/08 06:54:11;;;;;;;46.22;25.63;;;;;;;10.74;67.12;98949.91;5017203;28;20131;-77
2021/01/08 06:56:38;;;;;;;47.38;28.17;;;;;;;11.04;66.58;98988.28;5005315;28;20037;-78
2021/01/08 06:59:08;;;;;;;56.75;26.00;;;;;;;10.78;66.41;98946.69;5017478;28;20037;-80
2021/01/08 07:01:46;;;;;;;55.70;29.90;;;;;;;11.11;66.76;99007.63;5001946;28;20030;-80
2021/01/08 07:04:11;;;;;;;64.25;31.42;;;;;;;10.85;66.62;98951.19;5005682;28;20045;-76
2021/01/08 07:06:37;;;;;;;55.97;29.13;;;;;;;11.06;66.90;98985.44;5008684;28;20029;-81
2021/01/08 07:09:05;;;;;;;53.30;25.77;;;;;;;11.04;67.15;99004.13;5021245;28;20034;-78
2021/01/08 07:11:31;;;;;;;59.95;28.42;;;;;;;10.67;67.00;98927.94;5025427;28;20080;-77
2021/01/08 07:14:22;;;;;;;71.15;33.10;;;;;;;10.65;67.59;98941.31;5013045;28;20079;-77
2021/01/08 07:16:52;;;;;;;70.57;33.58;;;;;;;11.01;67.13;98986.03;5019254;28;20030;-79
2021/01/08 07:19:20;;;;;;;82.45;36.80;;;;;;;10.99;67.41;98979.31;5023361;28;20037;-76
2021/01/08 07:21:53;;;;;;;64.25;33.10;;;;;;;10.31;67.34;98889.28;5008075;28;20030;-76
2021/01/08 07:24:25;;;;;;;68.35;35.65;;;;;;;10.83;67.46;98964.59;5014199;28;20030;-79
2021/01/08 07:26:51;;;;;;;54.78;30.67;;;;;;;10.73;67.26;98958.84;5010356;28;20040;-78
2021/01/08 07:29:26;;;;;;;50.50;25.92;;;;;;;11.07;67.72;98995.81;5005376;28;20041;-82
2021/01/08 07:31:54;;;;;;;53.25;26.60;;;;;;;11.11;67.23;98996.25;5004029;28;20353;-81
2021/01/08 07:34:33;;;;;;;60.63;29.27;;;;;;;10.83;67.27;98968.03;5011265;28;20026;-80
2021/01/08 07:36:58;;;;;;;58.78;28.67;;;;;;;11.05;66.73;98970.59;5005862;28;20022;-80
2021/01/08 07:39:38;;;;;;;54.45;27.52;;;;;;;11.14;66.91;98966.78;5009706;28;20357;-78
2021/01/08 07:42:34;;;;;;;52.63;24.95;;;;;;;11.20;66.52;98973.16;5012861;28;20025;-76
2021/01/08 07:45:00;;;;;;;50.38;26.50;;;;;;;11.26;66.11;98986.41;5011352;28;20027;-78
2021/01/08 07:47:27;;;;;;;57.03;29.48;;;;;;;10.96;66.33;98961.22;5012375;28;20109;-78
2021/01/08 07:50:13;;;;;;;57.28;32.00;;;;;;;10.91;66.72;98930.09;5014583;28;20091;-79
2021/01/08 07:52:44;;;;;;;53.95;29.13;;;;;;;10.82;67.44;98929.44;5011246;28;20079;-78
2021/01/08 07:55:33;;;;;;;53.90;28.03;;;;;;;10.73;67.25;98935.88;5013258;28;20029;-78
2021/01/08 07:58:05;;;;;;;44.40;23.95;;;;;;;10.80;67.49;98942.03;5020674;28;20109;-76
2021/01/08 08:00:31;;;;;;;47.63;25.85;;;;;;;11.16;67.69;98996.50;5011383;28;20022;-83
2021/01/08 08:03:01;;;;;;;39.00;20.40;;;;;;;11.12;68.02;99000.50;5008647;28;20029;-75
2021/01/08 08:05:29;;;;;;;41.95;23.00;;;;;;;11.13;68.03;99010.06;4995804;28;20061;-75
2021/01/08 08:07:57;;;;;;;38.10;23.02;;;;;;;11.13;67.97;99005.59;5015393;28;20113;-75
2021/01/08 08:10:24;;;;;;;36.53;23.75;;;;;;;10.74;67.55;98937.53;5012294;28;20030;-75
2021/01/08 08:12:51;;;;;;;39.10;23.48;;;;;;;11.04;67.58;98979.53;5001976;28;20142;-79
2021/01/08 08:15:17;;;;;;;38.42;22.50;;;;;;;11.27;67.71;99001.25;4999049;28;20412;-77
2021/01/08 08:17:44;;;;;;;38.08;21.88;;;;;;;10.90;67.56;98932.94;5010129;28;20049;-78
2021/01/08 08:20:23;;;;;;;35.30;24.40;;;;;;;11.36;67.72;99023.03;5013081;28;20412;-78
2021/01/08 08:22:53;;;;;;;55.45;29.98;;;;;;;11.40;67.25;99017.16;5011012;28;20406;-80
2021/01/08 08:25:30;;;;;;;41.17;25.38;;;;;;;11.01;67.53;98940.31;5011112;28;20491;-79
2021/01/08 08:27:59;;;;;;;54.05;30.15;;;;;;;11.56;66.83;99020.47;5002701;28;20072;-77
2021/01/08 08:30:27;;;;;;;51.63;31.60;;;;;;;11.18;66.60;98946.09;5012092;28;20025;-82
2021/01/08 08:32:53;;;;;;;50.00;30.08;;;;;;;11.03;66.88;98906.59;5009712;28;20086;-80
2021/01/08 08:35:19;;;;;;;45.13;28.67;;;;;;;10.80;66.66;98857.53;5014934;28;20029;-81
2021/01/08 08:37:56;;;;;;;41.28;25.45;;;;;;;11.77;66.55;99009.78;5010919;28;20030;-77
2021/01/08 08:40:26;;;;;;;42.30;26.80;;;;;;;11.13;66.62;98905.22;5015288;28;20075;-79
2021/01/08 08:43:01;;;;;;;41.15;25.60;;;;;;;11.25;67.08;98915.25;5001146;28;20046;-79
2021/01/08 08:45:31;;;;;;;42.42;25.20;;;;;;;11.23;66.88;98933.94;5014379;28;20037;-78
2021/01/08 08:48:06;;;;;;;49.67;30.92;;;;;;;11.74;66.92;98995.13;5013637;28;20022;-79
2021/01/08 08:50:33;;;;;;;47.30;30.20;;;;;;;11.50;66.96;98950.72;5003623;28;20045;-79
2021/01/08 08:53:09;;;;;;;46.60;28.80;;;;;;;11.80;67.19;98998.03;5008530;28;20440;-78
2021/01/08 08:55:34;;;;;;;53.50;32.22;;;;;;;11.39;67.21;98917.72;5012656;28;20100;-78
2021/01/08 08:58:07;;;;;;;55.50;32.33;;;;;;;11.82;67.02;98972.19;5013635;28;20416;-77
2021/01/08 09:00:35;;;;;;;58.85;34.63;;;;;;;11.33;66.93;98886.81;5011854;28;20106;-78
2021/01/08 09:03:01;;;;;;;55.03;32.63;;;;;;;10.96;67.19;98829.97;5012325;28;20053;-79
2021/01/08 09:05:31;;;;;;;58.10;32.33;;;;;;;11.97;67.07;98964.91;5004372;28;20022;-78
2021/01/08 09:08:21;;;;;;;42.20;25.42;;;;;;;11.73;66.63;98911.50;5004595;28;20040;-78
2021/01/08 09:11:02;;;;;;;72.03;37.28;;;;;;;12.18;66.39;98946.22;4994989;28;20053;-91
2021/01/08 09:13:39;;;;;;;50.38;29.85;;;;;;;11.65;66.80;98865.94;4994647;28;20393;-86
2021/01/08 09:16:33;;;;;;;43.50;20.42;;;;;;;12.28;67.34;98922.81;5009650;28;20432;-81
2021/01/08 09:19:07;;;;;;;18.92;8.73;;;;;;;12.78;67.69;98898.53;5004845;28;20029;-83
2021/01/08 09:21:38;;;;;;;11.85;4.63;;;;;;;12.92;67.13;98878.91;4999475;28;20026;-82
2021/01/08 09:24:08;;;;;;;21.17;8.43;;;;;;;13.45;66.81;98935.25;4997384;28;20048;-87
2021/01/08 09:26:34;;;;;;;20.02;5.38;;;;;;;13.65;67.02;98908.59;5004380;28;20029;-84
2021/01/08 09:28:59;;;;;;;18.42;8.18;;;;;;;13.23;66.34;98796.84;5009239;28;20029;-87
2021/01/08 09:31:51;;;;;;;11.93;4.53;;;;;;;13.67;66.10;98832.28;5010319;28;20112;-80
2021/01/08 09:34:21;;;;;;;12.45;3.67;;;;;;;13.97;65.80;98843.06;5005750;28;20065;-81
2021/01/08 09:36:47;;;;;;;13.07;4.45;;;;;;;14.60;65.25;98912.00;5008619;28;20049;-77
2021/01/08 09:39:14;;;;;;;10.50;3.20;;;;;;;14.65;64.97;98876.81;5014609;28;20030;-77
2021/01/08 09:41:41;;;;;;;13.32;3.17;;;;;;;14.32;64.74;98792.94;5012951;28;20048;-78
2021/01/08 09:44:09;;;;;;;10.63;2.78;;;;;;;14.82;64.25;98832.66;5012451;28;20041;-81
2021/01/08 09:46:59;;;;;;;14.25;4.50;;;;;;;15.17;63.90;98876.22;5013040;28;20036;-79
2021/01/08 09:49:26;;;;;;;12.40;3.13;;;;;;;14.92;63.20;98822.34;5012811;28;20045;-81
2021/01/08 09:52:01;;;;;;;10.65;3.58;;;;;;;15.32;62.63;98851.06;5012757;28;20030;-77
2021/01/08 09:54:43;;;;;;;16.00;4.10;;;;;;;15.41;62.56;98857.72;4998031;28;20037;-78
2021/01/08 09:57:09;;;;;;;10.38;3.00;;;;;;;15.41;62.80;98837.25;5011921;28;20475;-78
2021/01/08 09:59:35;;;;;;;11.32;3.42;;;;;;;15.19;62.21;98809.53;5008920;28;20058;-79
2021/01/08 10:02:10;;;;;;;14.80;4.60;;;;;;;15.62;62.29;98838.63;5008090;28;20072;-80
2021/01/08 10:04:36;;;;;;;12.77;3.40;;;;;;;15.73;61.71;98837.84;5006776;28;20084;-78
2021/01/08 10:07:04;;;;;;;10.43;2.70;;;;;;;15.77;61.56;98823.03;5012098;28;20348;-78
2021/01/08 10:09:49;;;;;;;9.13;3.25;;;;;;;15.86;61.23;98821.66;5003261;28;20029;-76
2021/01/08 10:12:19;;;;;;;11.40;3.50;;;;;;;15.87;61.31;98809.16;5010327;28;20033;-78
2021/01/08 10:14:46;;;;;;;13.65;3.38;;;;;;;15.76;61.34;98780.69;5007796;28;20057;-78
2021/01/08 10:17:16;;;;;;;5.85;2.08;;;;;;;15.90;61.26;98790.06;5008272;28;20076;-79
2021/01/08 10:19:44;;;;;;;12.75;3.63;;;;;;;15.96;61.22;98810.44;5012756;28;20037;-80
2021/01/08 10:22:09;;;;;;;10.88;2.85;;;;;;;15.97;61.35;98809.41;5013834;28;20038;-80
2021/01/08 10:24:35;;;;;;;12.32;3.75;;;;;;;15.92;60.94;98787.19;5013349;28;20695;-79
2021/01/08 10:27:01;;;;;;;11.05;3.80;;;;;;;15.87;60.92;98793.19;5006003;28;20040;-79
2021/01/08 10:29:40;;;;;;;10.93;3.00;;;;;;;16.08;60.46;98799.78;5012738;28;20295;-81
2021/01/08 10:32:13;;;;;;;11.23;3.67;;;;;;;16.10;60.86;98806.50;5016203;28;20101;-78
2021/01/08 10:34:40;;;;;;;10.77;3.40;;;;;;;16.13;60.69;98811.38;5016430;28;20033;-81
2021/01/08 10:37:14;;;;;;;14.05;4.30;;;;;;;16.15;60.44;98798.63;5011526;28;20395;-78
2021/01/08 10:39:40;;;;;;;10.85;4.03;;;;;;;16.21;60.50;98805.69;5009516;28;20374;-80
2021/01/08 10:42:05;;;;;;;13.40;3.25;;;;;;;16.23;60.63;98804.66;5007501;28;20088;-75
2021/01/08 10:44:31;;;;;;;11.55;3.53;;;;;;;16.25;60.61;98776.75;5000704;28;20121;-78
2021/01/08 10:46:56;;;;;;;11.55;4.07;;;;;;;16.31;60.53;98805.13;5010875;28;20429;-78
2021/01/08 10:49:23;;;;;;;14.45;3.85;;;;;;;15.71;59.64;98674.91;4998011;28;20053;-82
2021/01/08 10:51:48;;;;;;;11.82;3.45;;;;;;;15.83;59.62;98694.34;5008450;28;20353;-83
2021/01/08 10:54:17;;;;;;;10.05;3.28;;;;;;;16.40;59.75;98763.78;5015825;28;20021;-79
2021/01/08 10:56:42;;;;;;;12.23;3.45;;;;;;;16.42;59.69;98768.88;5014584;28;20022;-82
2021/01/08 10:59:08;;;;;;;11.30;2.95;;;;;;;15.74;59.86;98650.50;5014865;28;20053;-83
2021/01/08 11:01:43;;;;;;;11.93;2.75;;;;;;;16.41;59.94;98772.59;5011755;28;20030;-82
2021/01/08 11:04:09;;;;;;;8.75;2.38;;;;;;;16.45;59.50;98790.53;5017020;28;20432;-82
2021/01/08 11:06:35;;;;;;;16.60;4.38;;;;;;;16.44;59.68;98783.59;5016601;28;20029;-80
2021/01/08 11:09:02;;;;;;;11.10;3.60;;;;;;;16.09;59.72;98734.84;5016158;28;20325;-82
2021/01/08 11:11:28;;;;;;;16.70;4.43;;;;;;;16.12;59.52;98745.03;5013497;28;20044;-83
2021/01/08 11:13:53;;;;;;;9.82;3.05;;;;;;;16.01;59.29;98714.72;5014430;28;20360;-81
2021/01/08 11:16:19;;;;;;;11.18;2.97;;;;;;;16.48;59.43;98770.59;5016745;28;20112;-87
2021/01/08 11:18:44;;;;;;;10.10;3.63;;;;;;;16.51;59.31;98770.13;5005386;28;20109;-84
2021/01/08 11:21:10;;;;;;;12.15;3.35;;;;;;;16.39;59.38;98743.50;4987174;28;20022;-86
2021/01/08 11:23:36;;;;;;;11.60;3.40;;;;;;;16.48;59.18;98747.44;4998456;28;20026;-82
2021/01/08 11:26:02;;;;;;;15.85;3.83;;;;;;;16.49;59.27;98734.91;5004638;28;20517;-81
2021/01/08 11:28:28;;;;;;;8.40;3.58;;;;;;;15.49;59.28;98554.91;5008895;28;21823;-85